createdAt,value
2023-03-04T00:01:16.992Z,75.66
2023-03-04T00:06:18.429Z,75.05
2023-03-04T00:11:19.826Z,75.37
2023-03-04T00:16:21.295Z,76.07
2023-03-04T00:21:22.958Z,76.56
2023-03-04T00:26:24.370Z,76.76
2023-03-04T00:31:25.858Z,75.85
2023-03-04T00:36:27.408Z,76.92
2023-03-04T00:41:28.887Z,76.86
2023-03-04T00:46:30.323Z,75.83
2023-03-04T00:51:31.727Z,75.99
2023-03-04T00:56:33.243Z,76.70
2023-03-04T01:01:34.738Z,77.38
2023-03-04T01:06:36.363Z,78.32
2023-03-04T01:11:38.071Z,77.34
2023-03-04T01:16:39.584Z,77.15
2023-03-04T01:21:41.029Z,77.42
2023-03-04T01:26:42.439Z,78.17
2023-03-04T01:31:44.059Z,81.00
2023-03-04T01:36:45.460Z,82.36
2023-03-04T01:41:46.897Z,81.08
2023-03-04T01:46:51.696Z,81.03
2023-03-04T01:51:54.756Z,81.44
2023-03-04T01:56:58.766Z,82.30
2023-03-04T02:02:01.026Z,81.68
2023-03-04T02:07:04.355Z,83.35
2023-03-04T02:12:08.081Z,82.43
2023-03-04T02:17:12.779Z,83.43
2023-03-04T02:22:14.254Z,82.68
2023-03-04T02:27:15.928Z,84.46
2023-03-04T02:32:17.726Z,84.90
2023-03-04T02:37:20.153Z,83.99
2023-03-04T02:42:21.763Z,83.40
2023-03-04T02:47:23.195Z,84.12
2023-03-04T02:52:26.389Z,84.84
2023-03-04T02:57:27.779Z,84.87
2023-03-04T03:02:29.227Z,84.86
2023-03-04T03:07:31.178Z,84.71
2023-03-04T03:12:32.578Z,84.08
2023-03-04T03:17:34.193Z,84.51
2023-03-04T03:22:35.808Z,83.67
2023-03-04T03:27:37.796Z,83.05
2023-03-04T03:32:39.286Z,84.46
2023-03-04T03:37:40.732Z,85.05
2023-03-04T03:42:42.182Z,85.69
2023-03-04T03:47:43.613Z,85.06
2023-03-04T03:52:45.008Z,85.18
2023-03-04T03:57:46.707Z,84.61
2023-03-04T04:02:48.239Z,86.16
2023-03-04T04:07:50.345Z,85.84
2023-03-04T04:12:51.874Z,85.92
2023-03-04T04:17:53.274Z,85.55
2023-03-04T04:22:54.657Z,84.21
2023-03-04T04:27:56.148Z,84.87
2023-03-04T04:33:01.510Z,84.71
2023-03-04T04:38:02.937Z,85.42
2023-03-04T04:43:04.413Z,84.99
2023-03-04T04:48:06.034Z,85.06
2023-03-04T04:53:07.626Z,85.13
2023-03-04T04:58:09.041Z,85.60
2023-03-04T05:03:10.479Z,85.05
2023-03-04T05:08:11.884Z,85.16
2023-03-04T05:13:13.339Z,85.14
2023-03-04T05:18:14.739Z,85.44
2023-03-04T05:23:16.158Z,85.68
2023-03-04T05:28:17.964Z,85.58
2023-03-04T05:33:20.026Z,85.39
2023-03-04T05:38:22.074Z,85.34
2023-03-04T05:43:23.629Z,85.44
2023-03-04T05:48:25.191Z,86.36
2023-03-04T05:53:27.433Z,85.26
2023-03-04T05:58:28.862Z,86.49
2023-03-04T06:03:30.394Z,85.73
2023-03-04T06:08:33.256Z,86.05
2023-03-04T06:13:35.114Z,86.90
2023-03-04T06:18:36.759Z,86.75
2023-03-04T06:23:42.048Z,85.21
2023-03-04T06:28:43.984Z,84.37
2023-03-04T06:33:46.206Z,84.05
2023-03-04T06:38:47.701Z,83.19
2023-03-04T06:43:49.262Z,82.14
2023-03-04T06:48:50.733Z,81.26
2023-03-04T06:53:52.191Z,79.85
2023-03-04T06:58:53.799Z,80.12
2023-03-04T07:03:56.415Z,79.39
2023-03-04T07:08:58.541Z,79.36
2023-03-04T07:13:59.995Z,79.21
2023-03-04T07:19:01.682Z,79.06
2023-03-04T07:24:03.316Z,79.73
2023-03-04T07:29:05.642Z,79.46
2023-03-04T07:34:12.098Z,79.88
2023-03-04T07:39:13.964Z,79.88
2023-03-04T07:44:15.396Z,79.16
2023-03-04T07:49:16.819Z,79.22
2023-03-04T07:54:20.131Z,80.37
2023-03-04T07:59:21.745Z,80.31
2023-03-04T08:04:23.390Z,80.52
2023-03-04T08:09:25.127Z,79.71
2023-03-04T08:14:26.529Z,79.62
2023-03-04T08:19:27.980Z,79.26
2023-03-04T08:24:29.431Z,79.49
2023-03-04T08:29:31.184Z,78.43
2023-03-04T08:34:32.609Z,79.10
2023-03-04T08:39:36.037Z,78.59
2023-03-04T08:44:37.412Z,78.01
2023-03-04T08:49:38.909Z,77.36
2023-03-04T08:54:40.352Z,76.78
2023-03-04T08:59:41.816Z,75.93
2023-03-04T09:04:45.624Z,75.48
2023-03-04T09:09:47.108Z,74.67
2023-03-04T09:15:01.161Z,73.80
2023-03-04T09:20:11.709Z,72.99
2023-03-04T09:25:15.462Z,71.94
2023-03-04T09:30:17.134Z,70.19
2023-03-04T09:35:18.730Z,70.02
2023-03-04T09:40:24.652Z,68.93
2023-03-04T09:45:34.879Z,68.69
2023-03-04T09:50:40.767Z,68.68
2023-03-04T09:55:48.895Z,67.46
2023-03-04T10:01:20.031Z,66.59
2023-03-04T10:06:23.262Z,67.70
2023-03-04T10:11:34.359Z,66.58
2023-03-04T10:16:56.697Z,66.66
2023-03-04T10:21:58.538Z,66.21
2023-03-04T10:27:04.983Z,65.40
2023-03-04T10:32:14.265Z,65.45
2023-03-04T10:37:15.791Z,64.05
2023-03-04T10:42:17.223Z,64.49
2023-03-04T10:47:18.943Z,64.59
2023-03-04T10:52:35.839Z,65.23
2023-03-04T10:57:40.092Z,64.95
2023-03-04T11:02:41.522Z,65.07
2023-03-04T11:07:57.001Z,64.63
2023-03-04T11:12:58.765Z,64.41
2023-03-04T11:18:10.339Z,65.32
2023-03-04T11:23:25.348Z,64.93
2023-03-04T11:28:39.044Z,65.15
2023-03-04T11:33:47.342Z,65.27
2023-03-04T11:38:51.178Z,65.47
2023-03-04T11:43:52.739Z,65.93
2023-03-04T11:49:21.293Z,64.26
2023-03-04T11:54:32.755Z,64.58
2023-03-04T11:59:47.426Z,63.42
2023-03-04T12:05:20.847Z,64.60
2023-03-04T12:10:33.352Z,64.20
2023-03-04T12:15:49.158Z,64.04
2023-03-04T12:21:01.849Z,64.71
2023-03-04T12:26:30.503Z,64.87
2023-03-04T12:31:37.080Z,63.26
2023-03-04T12:36:43.947Z,63.14
2023-03-04T12:42:01.852Z,63.87
2023-03-04T12:47:17.344Z,62.88
2023-03-04T12:52:28.763Z,64.19
2023-03-04T12:57:34.406Z,63.39
2023-03-04T13:02:48.071Z,63.14
2023-03-04T13:08:08.811Z,63.70
2023-03-04T13:13:48.717Z,63.03
2023-03-04T13:18:50.353Z,61.88
2023-03-04T13:23:53.441Z,62.48
2023-03-04T13:29:29.982Z,63.46
2023-03-04T13:34:53.771Z,62.29
2023-03-04T13:40:23.237Z,62.24
2023-03-04T13:45:33.064Z,62.53
2023-03-04T13:50:39.394Z,62.51
2023-03-04T13:55:43.099Z,62.85
2023-03-04T14:00:50.925Z,63.73
2023-03-04T14:06:17.715Z,62.27
2023-03-04T14:11:32.973Z,62.85
2023-03-04T14:16:40.230Z,63.59
2023-03-04T14:21:46.071Z,63.32
2023-03-04T14:26:48.330Z,63.35
2023-03-04T14:31:50.564Z,63.76
2023-03-04T14:36:52.355Z,63.62
2023-03-04T14:42:08.900Z,63.05
2023-03-04T14:47:30.722Z,64.32
2023-03-04T14:52:38.357Z,63.53
2023-03-04T14:57:40.091Z,63.51
2023-03-04T15:02:42.528Z,63.60
2023-03-04T15:07:51.339Z,64.30
2023-03-04T15:12:56.339Z,63.82
2023-03-04T15:18:14.544Z,63.37
2023-03-04T15:23:16.068Z,63.45
2023-03-04T15:28:19.036Z,63.79
2023-03-04T15:33:21.312Z,64.14
2023-03-04T15:38:23.488Z,64.15
2023-03-04T15:43:25.604Z,63.86
2023-03-04T15:48:27.004Z,64.43
2023-03-04T15:53:37.447Z,64.71
2023-03-04T15:58:39.499Z,65.28
2023-03-04T16:03:41.431Z,64.97
2023-03-04T16:08:43.180Z,65.50
2023-03-04T16:13:44.575Z,65.64
2023-03-04T16:18:46.286Z,65.51
2023-03-04T16:23:49.981Z,66.03
2023-03-04T16:28:52.690Z,66.63
2023-03-04T16:33:54.223Z,66.06
2023-03-04T16:38:57.199Z,66.05
2023-03-04T16:44:00.555Z,66.52
2023-03-04T16:49:02.057Z,66.23
2023-03-04T16:54:03.565Z,66.57
2023-03-04T16:59:05.029Z,66.63
2023-03-04T17:04:06.632Z,67.07
2023-03-04T17:09:09.077Z,67.09
2023-03-04T17:14:10.512Z,67.62
2023-03-04T17:19:11.925Z,67.45
2023-03-04T17:24:13.351Z,67.75
2023-03-04T17:29:14.810Z,67.77
2023-03-04T17:34:17.978Z,67.13
2023-03-04T17:39:19.486Z,66.65
2023-03-04T17:44:22.762Z,67.23
2023-03-04T17:49:25.039Z,67.14
2023-03-04T17:54:27.959Z,66.95
2023-03-04T17:59:29.463Z,67.71
2023-03-04T18:04:30.970Z,67.94
2023-03-04T18:09:32.396Z,67.53
2023-03-04T18:14:33.866Z,67.70
2023-03-04T18:19:35.381Z,67.91
2023-03-04T18:24:39.653Z,67.83
2023-03-04T18:29:41.059Z,67.79
2023-03-04T18:34:42.455Z,68.09
2023-03-04T18:39:43.924Z,67.51
2023-03-04T18:44:45.336Z,67.46
2023-03-04T18:49:47.694Z,68.13
2023-03-04T18:54:49.189Z,67.92
2023-03-04T18:59:58.513Z,67.56
2023-03-04T19:05:18.865Z,68.25
2023-03-04T19:10:20.603Z,68.43
2023-03-04T19:15:22.054Z,68.06
2023-03-04T19:20:23.596Z,68.18
2023-03-04T19:25:24.996Z,67.46
2023-03-04T19:30:26.575Z,67.90
2023-03-04T19:35:28.157Z,68.18
2023-03-04T19:40:29.651Z,68.17
2023-03-04T19:45:31.042Z,68.36
2023-03-04T19:50:33.311Z,68.12
2023-03-04T19:55:37.667Z,68.63
2023-03-04T20:00:39.150Z,68.75
2023-03-04T20:05:40.659Z,68.00
2023-03-04T20:10:42.282Z,67.96
2023-03-04T20:15:44.399Z,68.69
2023-03-04T20:20:45.810Z,68.61
2023-03-04T20:25:47.550Z,68.42
2023-03-04T20:30:49.062Z,68.00
2023-03-04T20:35:50.525Z,67.66
2023-03-04T20:40:52.986Z,68.17
2023-03-04T20:45:54.558Z,67.92
2023-03-04T20:50:56.018Z,68.42
2023-03-04T20:56:03.271Z,67.54
2023-03-04T21:01:04.723Z,68.01
2023-03-04T21:06:08.744Z,67.86
2023-03-04T21:11:14.336Z,68.38
2023-03-04T21:16:17.406Z,67.85
2023-03-04T21:21:24.559Z,67.96
2023-03-04T21:26:26.150Z,68.47
2023-03-04T21:31:34.009Z,68.84
2023-03-04T21:36:35.522Z,68.16
2023-03-04T21:41:37.064Z,68.44
2023-03-04T21:46:38.576Z,68.25
2023-03-04T21:51:44.079Z,68.01
2023-03-04T21:56:45.617Z,69.13
2023-03-04T22:01:47.181Z,68.87
2023-03-04T22:06:48.640Z,69.00
2023-03-04T22:11:50.499Z,68.88
2023-03-04T22:16:55.749Z,69.19
2023-03-04T22:21:57.509Z,68.59
2023-03-04T22:26:59.855Z,68.38
2023-03-04T22:32:02.199Z,68.46
2023-03-04T22:37:04.101Z,69.20
2023-03-04T22:42:05.701Z,68.96
2023-03-04T22:47:07.208Z,68.21
2023-03-04T22:52:08.657Z,68.55
2023-03-04T22:57:10.673Z,68.62
2023-03-04T23:02:12.223Z,68.50
2023-03-04T23:07:13.775Z,67.74
2023-03-04T23:12:15.279Z,68.72
2023-03-04T23:17:16.756Z,68.41
2023-03-04T23:22:18.213Z,67.84
2023-03-04T23:27:19.632Z,67.62
2023-03-04T23:32:21.504Z,67.60
2023-03-04T23:37:23.723Z,67.82
2023-03-04T23:42:25.156Z,68.78
2023-03-04T23:47:26.593Z,68.29
2023-03-04T23:52:28.162Z,68.56
2023-03-04T23:57:29.561Z,68.50
